To NAV CANADA Home Page Login to a new session Search on AWWS site Feedback and Comments Disclaimer Vers la page française équivalente Tips FAQ What's new on the site To the Forecasts and Observations / NOTAM section To "File a Flight Plan" website Publications and other links Update of the User's profile FIC Telephone Numbers My Weather Data Folder Route Weather Data Regional Weather Data Local Weather Data To the Forecasts and Observations / NOTAM section
Request Generated 03/23/2017 at 00:21:01 UTC . Weather information available at that time is displayed.

METAR/TAF

If you find any discrepancies between the coded METAR/TAF and the plain language METAR/TAF please use the coded METAR/TAF. LWIS bulletins are not decoded in plain language.

VANCOUVER INTL/BC    (show WxCam)

METAR CYVR 230000Z 15012G18KT 15SM -SHRA FEW025 SCT035 BKN046 BKN062 OVC075 10/07 A2981 RMK CF1CU2CU3SC1AC1 SLP096=
METAR
LOCATION
CYVR - VANCOUVER INTL/BC
DATE - TIME
23 MARCH 2017 - 0000 UTC
WIND
150 TRUE @ 12  KNOTS
GUSTS
18 KNOTS
VISIBILITY
15 STAT.  MILES
RUNWAY VISUAL RANGE
WEATHER
LIGHT RAIN SHOWER
CLOUDINESS
FEW CLOUDS (1/8 - 2/8) 2500  FT
SCATTERED CLOUDS (3/8 - 4/8) 3500  FT
BROKEN CLOUDS (5/8 - 7/8) 4600  FT
BROKEN CLOUDS (5/8 - 7/8) 6200  FT
OVERCAST 7500  FT
TEMP / DEWPOINT
10 C / 7 C
ALTIMETER
29.81 IN HG
RECENT WEATHER
WIND SHEAR

SPECI CYVR 222343Z 14015KT 20SM -SHRA FEW025 FEW035 BKN049 BKN058 OVC075 11/07 A2980 RMK CU1CU1SC3SC2AC1 SLP091=
SPECI
LOCATION
CYVR - VANCOUVER INTL/BC
DATE - TIME
22 MARCH 2017 - 2343 UTC
WIND
140 TRUE @ 15  KNOTS
VISIBILITY
20 STAT.  MILES
RUNWAY VISUAL RANGE
WEATHER
LIGHT RAIN SHOWER
CLOUDINESS
FEW CLOUDS (1/8 - 2/8) 2500  FT
FEW CLOUDS (1/8 - 2/8) 3500  FT
BROKEN CLOUDS (5/8 - 7/8) 4900  FT
BROKEN CLOUDS (5/8 - 7/8) 5800  FT
OVERCAST 7500  FT
TEMP / DEWPOINT
11 C / 7 C
ALTIMETER
29.80 IN HG
RECENT WEATHER
WIND SHEAR

METAR CYVR 222300Z 12015G21KT 20SM FEW025 SCT045 BKN075 OVC120 12/07 A2979 RMK CU2CU1AC3AC2 SLP088=
METAR
LOCATION
CYVR - VANCOUVER INTL/BC
DATE - TIME
22 MARCH 2017 - 2300 UTC
WIND
120 TRUE @ 15  KNOTS
GUSTS
21 KNOTS
VISIBILITY
20 STAT.  MILES
RUNWAY VISUAL RANGE
WEATHER
CLOUDINESS
FEW CLOUDS (1/8 - 2/8) 2500  FT
SCATTERED CLOUDS (3/8 - 4/8) 4500  FT
BROKEN CLOUDS (5/8 - 7/8) 7500  FT
OVERCAST 12000  FT
TEMP / DEWPOINT
12 C / 7 C
ALTIMETER
29.79 IN HG
RECENT WEATHER
WIND SHEAR

METAR CYVR 222200Z 12008KT 15SM VCSH FEW025 SCT035 BKN045 BKN060 OVC075 12/08 A2978 RMK CF1SC2SC3SC1AC1 SLP087=
METAR
LOCATION
CYVR - VANCOUVER INTL/BC
DATE - TIME
22 MARCH 2017 - 2200 UTC
WIND
120 TRUE @ 8  KNOTS
VISIBILITY
15 STAT.  MILES
RUNWAY VISUAL RANGE
WEATHER
IN THE VICINITY
SHOWER
CLOUDINESS
FEW CLOUDS (1/8 - 2/8) 2500  FT
SCATTERED CLOUDS (3/8 - 4/8) 3500  FT
BROKEN CLOUDS (5/8 - 7/8) 4500  FT
BROKEN CLOUDS (5/8 - 7/8) 6000  FT
OVERCAST 7500  FT
TEMP / DEWPOINT
12 C / 8 C
ALTIMETER
29.78 IN HG
RECENT WEATHER
WIND SHEAR

TAF CYVR 222341Z 2300/2406 14012G22KT P6SM SCT040 BKN080 OVC120 TEMPO 2300/2305 P6SM -SHRA BKN040 OVC080 BECMG 2300/2302 22012G22KT FM230500 17010KT P6SM SCT040 BKN080 TEMPO 2305/2309 P6SM -SHRA FEW020 BKN040 FM230900 14010KT P6SM SCT015 BKN040 TEMPO 2309/2321 5SM -SHRA BR BKN015 OVC040 FM232100 10010KT P6SM BKN050 FM240300 09010KT P6SM -RA BKN020 OVC050 RMK NXT FCST BY 230300Z=
TAF
LOCATION

CYVR - VANCOUVER INTL/BC
VALIDITY [UTC]
22 MAR - 2341 to
24 MAR - 0600
 
TIMES
[UTC]
WIND
[DEGREES TRUE]
VISIBILITY
[STAT. MILES]
WEATHER
CLOUDINESS
[FEET AGL]
 
23 MAR - 0000 to
23 MAR - 0500
140 @ 12 KNOTS
GUSTS 22 KNOTS
6+
NIL
4000 SCATTERED
8000 BROKEN
12000 OVERCAST
TEMPORARY CHANGES
23 MAR - 0000 to
23 MAR - 0500
 
6+
LIGHT RAIN SHOWER
4000 BROKEN
8000 OVERCAST
BECOMING
23 MAR - 0000 to
23 MAR - 0200
220 @ 12 KNOTS
GUSTS 22 KNOTS
 
 
 
 
23 MAR - 0500 to
23 MAR - 0900
170 @ 10 KNOTS
6+
NIL
4000 SCATTERED
8000 BROKEN
TEMPORARY CHANGES
23 MAR - 0500 to
23 MAR - 0900
 
6+
LIGHT RAIN SHOWER
2000 FEW
4000 BROKEN
 
23 MAR - 0900 to
23 MAR - 2100
140 @ 10 KNOTS
6+
NIL
1500 SCATTERED
4000 BROKEN
TEMPORARY CHANGES
23 MAR - 0900 to
23 MAR - 2100
 
5
LIGHT RAIN SHOWER
MIST
1500 BROKEN
4000 OVERCAST
 
23 MAR - 2100 to
24 MAR - 0300
100 @ 10 KNOTS
6+
NIL
5000 BROKEN
 
24 MAR - 0300 to
24 MAR - 0600
90 @ 10 KNOTS
6+
LIGHT RAIN
2000 BROKEN
5000 OVERCAST
REMARKS
THE NEXT FORECAST WILL BE ISSUED BY 0300 UTC ON DAY 23


Your time UTC time
Weather data provided by Environment Canada and NAV CANADA